Time;durP1;ratioP1;P1;durP2;ratioP2;P2;SDS_P1;SDS_P2;PMS_P1;PMS_P2;Temp;Humidity;BMP_temperature;BMP_pressure;BME280_temperature;BME280_humidity;BME280_pressure;Samples;Min_cycle;Max_cycle;Signal;HPM_P1;HPM_P2
2021/01/05 00:01:21;;;;;;;26.07;23.40;;;2.50;99.90;;;;;;5129196;27;20513;-76
2021/01/05 00:03:50;;;;;;;28.00;24.63;;;2.50;99.90;;;;;;5125025;27;20456;-75
2021/01/05 00:06:16;;;;;;;27.10;24.30;;;2.50;99.90;;;;;;5127168;27;20453;-76
2021/01/05 00:08:42;;;;;;;28.00;23.47;;;2.50;99.90;;;;;;5126653;27;20464;-75
2021/01/05 00:11:09;;;;;;;27.77;24.80;;;2.40;99.90;;;;;;5120250;27;20479;-74
2021/01/05 00:13:36;;;;;;;27.40;24.60;;;2.40;99.90;;;;;;5122553;27;20459;-76
2021/01/05 00:16:02;;;;;;;26.77;23.97;;;2.30;99.90;;;;;;5121879;27;20527;-75
2021/01/05 00:18:30;;;;;;;27.83;23.03;;;2.30;99.90;;;;;;5115219;27;20472;-76
2021/01/05 00:20:57;;;;;;;26.87;22.90;;;2.30;99.90;;;;;;5120638;27;20471;-74
2021/01/05 00:23:23;;;;;;;24.83;22.27;;;2.40;99.90;;;;;;5119970;27;20471;-76
2021/01/05 00:25:50;;;;;;;25.77;23.20;;;2.30;99.90;;;;;;5117422;27;20460;-74
2021/01/05 00:28:18;;;;;;;27.10;24.00;;;2.40;99.90;;;;;;5120238;27;20471;-75
2021/01/05 00:30:45;;;;;;;24.63;22.27;;;2.40;99.90;;;;;;5122743;27;20492;-75
2021/01/05 00:33:11;;;;;;;27.20;23.07;;;2.40;99.90;;;;;;5120045;27;20825;-75
2021/01/05 00:35:40;;;;;;;21.30;19.23;;;2.30;99.90;;;;;;5120912;27;20899;-75
2021/01/05 00:38:10;;;;;;;26.63;21.93;;;2.40;99.90;;;;;;5120874;27;20460;-74
2021/01/05 00:40:38;;;;;;;27.20;24.27;;;2.30;99.90;;;;;;5123931;27;20472;-74
2021/01/05 00:43:05;;;;;;;27.10;23.73;;;2.40;99.90;;;;;;5115842;27;20462;-75
2021/01/05 00:45:34;;;;;;;27.97;24.93;;;2.40;99.90;;;;;;5123878;27;20472;-75
2021/01/05 00:48:01;;;;;;;28.37;23.23;;;2.50;99.90;;;;;;5124166;27;20461;-74
2021/01/05 00:50:28;;;;;;;28.47;25.10;;;2.50;99.90;;;;;;5121989;27;20552;-74
2021/01/05 00:52:55;;;;;;;25.87;23.23;;;2.50;99.90;;;;;;5118643;27;20450;-74
2021/01/05 00:55:23;;;;;;;27.93;24.07;;;2.60;99.90;;;;;;5121809;27;20476;-73
2021/01/05 00:57:50;;;;;;;27.97;24.87;;;2.50;99.90;;;;;;5117992;28;20465;-76
2021/01/05 01:00:20;;;;;;;27.57;24.67;;;2.50;99.90;;;;;;5122389;27;20483;-75
2021/01/05 01:02:48;;;;;;;27.20;24.30;;;2.40;99.90;;;;;;5124017;28;20461;-74
2021/01/05 01:05:15;;;;;;;27.13;24.37;;;2.50;99.90;;;;;;5121832;28;20478;-75
2021/01/05 01:07:42;;;;;;;28.20;24.90;;;2.50;99.90;;;;;;5121331;28;20468;-74
2021/01/05 01:10:10;;;;;;;26.70;23.87;;;2.50;99.90;;;;;;5122553;28;20559;-75
2021/01/05 01:12:38;;;;;;;26.47;23.77;;;2.60;99.90;;;;;;5120148;28;20485;-75
2021/01/05 01:15:07;;;;;;;25.80;23.30;;;2.60;99.90;;;;;;5120379;27;20473;-74
2021/01/05 01:17:35;;;;;;;27.70;24.90;;;2.50;99.90;;;;;;5121422;28;20463;-75
2021/01/05 01:20:03;;;;;;;27.20;24.47;;;2.50;99.90;;;;;;5119724;28;20464;-75
2021/01/05 01:22:30;;;;;;;27.40;24.63;;;2.50;99.90;;;;;;5120428;28;20456;-76
2021/01/05 01:24:57;;;;;;;28.30;25.50;;;2.60;99.90;;;;;;5121178;28;20465;-76
2021/01/05 01:27:24;;;;;;;28.70;25.20;;;2.60;99.90;;;;;;5123520;28;21041;-74
2021/01/05 01:29:52;;;;;;;26.07;22.77;;;2.50;99.90;;;;;;5122173;28;20449;-74
2021/01/05 01:32:18;;;;;;;27.43;23.93;;;2.50;99.90;;;;;;5122582;27;20849;-75
2021/01/05 01:34:44;;;;;;;28.00;25.10;;;2.60;99.90;;;;;;5118468;28;20455;-76
2021/01/05 01:37:13;;;;;;;26.53;23.83;;;2.60;99.90;;;;;;5119523;28;20464;-75
2021/01/05 01:39:42;;;;;;;27.50;24.17;;;2.60;99.90;;;;;;5124744;28;20491;-74
2021/01/05 01:42:10;;;;;;;27.50;24.50;;;2.70;99.90;;;;;;5115212;28;20476;-75
2021/01/05 01:44:38;;;;;;;27.87;24.83;;;2.60;99.90;;;;;;5122002;28;20465;-74
2021/01/05 01:47:14;;;;;;;29.47;24.50;;;2.50;99.90;;;;;;5121542;27;20963;-75
2021/01/05 01:49:44;;;;;;;27.87;25.07;;;2.70;99.90;;;;;;5122860;28;20467;-75
2021/01/05 01:52:10;;;;;;;26.97;24.07;;;2.80;99.90;;;;;;5116868;28;20465;-75
2021/01/05 01:55:11;;;;;;;25.90;23.00;;;2.60;99.90;;;;;;5121387;27;20460;-75
2021/01/05 01:58:08;;;;;;;28.57;24.87;;;2.70;99.90;;;;;;5124657;27;20802;-76
2021/01/05 02:00:46;;;;;;;27.83;23.77;;;2.50;99.90;;;;;;5124337;27;20460;-76
2021/01/05 02:03:25;;;;;;;28.80;24.50;;;2.40;99.90;;;;;;5126456;27;20523;-76
2021/01/05 02:06:08;;;;;;;30.63;26.30;;;2.50;99.90;;;;;;5120236;27;20475;-74
2021/01/05 02:08:47;;;;;;;28.03;24.53;;;2.50;99.90;;;;;;5120125;27;20972;-76
2021/01/05 02:11:30;;;;;;;29.53;25.13;;;2.50;99.90;;;;;;5119973;27;20512;-76
2021/01/05 02:14:08;;;;;;;30.57;26.17;;;2.50;99.90;;;;;;5115963;27;20507;-76
2021/01/05 02:16:42;;;;;;;30.13;25.20;;;2.60;99.90;;;;;;5125112;27;20982;-75
2021/01/05 02:19:16;;;;;;;29.20;25.43;;;2.50;99.90;;;;;;5123903;27;20464;-76
2021/01/05 02:21:53;;;;;;;27.73;24.93;;;2.50;99.90;;;;;;5123342;27;20512;-76
2021/01/05 02:24:37;;;;;;;28.63;25.50;;;2.50;99.90;;;;;;5123572;27;20513;-76
2021/01/05 02:27:08;;;;;;;28.10;25.27;;;2.60;99.90;;;;;;5121854;27;20487;-76
2021/01/05 02:29:39;;;;;;;28.13;23.60;;;2.60;99.90;;;;;;5127543;27;20473;-76
2021/01/05 02:32:19;;;;;;;28.53;25.40;;;2.60;99.90;;;;;;5130818;27;20452;-75
2021/01/05 02:35:06;;;;;;;28.33;25.00;;;2.70;99.90;;;;;;5125150;27;20950;-76
2021/01/05 02:37:41;;;;;;;30.17;26.83;;;2.60;99.90;;;;;;5102275;27;20476;-76
2021/01/05 02:40:23;;;;;;;37.13;27.90;;;2.60;99.90;;;;;;5120861;27;20496;-77
2021/01/05 02:43:18;;;;;;;30.10;26.50;;;2.60;99.90;;;;;;5123724;27;20472;-76
2021/01/05 02:45:55;;;;;;;27.20;24.40;;;2.70;99.90;;;;;;5124268;27;20469;-75
2021/01/05 02:48:40;;;;;;;29.27;25.90;;;2.60;99.90;;;;;;5124933;27;20508;-76
2021/01/05 02:51:38;;;;;;;33.20;27.47;;;2.60;99.90;;;;;;5115410;27;20590;-75
2021/01/05 02:54:50;;;;;;;28.73;24.57;;;2.50;99.90;;;;;;5082181;27;20886;-77
2021/01/05 02:57:44;;;;;;;33.07;26.67;;;2.50;99.90;;;;;;5123130;27;20468;-75
2021/01/05 03:00:48;;;;;;;32.80;25.80;;;2.50;99.90;;;;;;5126388;27;20468;-75
2021/01/05 03:03:37;;;;;;;27.30;24.40;;;2.50;99.90;;;;;;5125397;27;20456;-75
2021/01/05 03:06:20;;;;;;;30.17;26.87;;;2.50;99.90;;;;;;5125077;27;20464;-74
2021/01/05 03:08:56;;;;;;;31.53;27.17;;;2.60;99.90;;;;;;5123645;27;20757;-77
2021/01/05 03:11:29;;;;;;;29.40;26.13;;;2.60;99.90;;;;;;5126564;27;20465;-76
2021/01/05 03:14:02;;;;;;;29.50;26.07;;;2.60;99.90;;;;;;5124275;27;20464;-75
2021/01/05 03:16:33;;;;;;;30.73;25.50;;;2.70;99.90;;;;;;5126005;27;20488;-75
2021/01/05 03:19:08;;;;;;;30.17;27.00;;;2.60;99.90;;;;;;5117427;27;20458;-75
2021/01/05 03:21:39;;;;;;;28.93;25.80;;;2.50;99.90;;;;;;5120977;27;20452;-76
2021/01/05 03:24:07;;;;;;;30.10;26.30;;;2.70;99.90;;;;;;5122801;27;21134;-77
2021/01/05 03:26:39;;;;;;;29.47;26.30;;;2.60;99.90;;;;;;5122430;27;20461;-77
2021/01/05 03:29:08;;;;;;;35.47;26.60;;;2.70;99.90;;;;;;5123389;27;20456;-76
2021/01/05 03:31:44;;;;;;;28.90;25.80;;;2.70;99.90;;;;;;5119686;27;20460;-75
2021/01/05 03:34:11;;;;;;;29.40;25.50;;;2.70;99.90;;;;;;5120472;27;20945;-76
2021/01/05 03:36:37;;;;;;;37.80;25.97;;;2.70;99.90;;;;;;5120167;27;20480;-76
2021/01/05 03:39:04;;;;;;;28.63;25.40;;;2.70;99.90;;;;;;5124511;27;20453;-75
2021/01/05 03:41:31;;;;;;;29.17;26.03;;;2.70;99.90;;;;;;5078702;28;20977;-76
2021/01/05 03:43:57;;;;;;;30.50;26.30;;;2.80;99.90;;;;;;5081057;28;20531;-76
2021/01/05 03:46:26;;;;;;;29.40;25.53;;;2.70;99.90;;;;;;5078503;28;20564;-76
2021/01/05 03:48:53;;;;;;;26.83;23.27;;;2.70;99.90;;;;;;5079603;28;20470;-76
2021/01/05 03:51:20;;;;;;;28.83;25.70;;;2.70;99.90;;;;;;5078311;28;20458;-75
2021/01/05 03:53:46;;;;;;;27.83;24.87;;;2.60;99.90;;;;;;5078589;28;21098;-73
2021/01/05 03:56:12;;;;;;;29.23;24.90;;;2.60;99.90;;;;;;5076818;28;20491;-76
2021/01/05 03:58:38;;;;;;;27.87;24.47;;;2.60;99.90;;;;;;5080364;28;20454;-76
2021/01/05 04:01:05;;;;;;;29.60;25.30;;;2.70;99.90;;;;;;5077663;28;20469;-76
2021/01/05 04:03:31;;;;;;;30.60;26.90;;;2.70;99.90;;;;;;5082009;28;20462;-76
2021/01/05 04:05:59;;;;;;;27.40;24.57;;;2.60;99.90;;;;;;5081822;28;20473;-75
2021/01/05 04:08:27;;;;;;;28.97;24.10;;;2.70;99.90;;;;;;5087760;28;20455;-76
2021/01/05 04:10:54;;;;;;;27.40;24.47;;;2.50;99.90;;;;;;5080493;28;20470;-74
2021/01/05 04:13:20;;;;;;;27.70;24.90;;;2.40;99.90;;;;;;5079796;28;20458;-75
2021/01/05 04:15:47;;;;;;;28.80;24.53;;;2.50;99.90;;;;;;5079894;28;20493;-74
2021/01/05 04:18:16;;;;;;;30.90;24.73;;;2.60;99.90;;;;;;5083020;28;20469;-75
2021/01/05 04:20:42;;;;;;;28.70;24.80;;;2.60;99.90;;;;;;5081858;28;20512;-76
2021/01/05 04:23:10;;;;;;;26.43;23.73;;;2.50;99.90;;;;;;5078856;28;20821;-74
2021/01/05 04:25:37;;;;;;;30.77;26.47;;;2.60;99.90;;;;;;5079249;28;20512;-74
2021/01/05 04:28:04;;;;;;;30.43;25.67;;;2.50;99.90;;;;;;5081956;28;20459;-77
2021/01/05 04:30:32;;;;;;;26.63;22.13;;;2.50;99.90;;;;;;5083334;28;20827;-75
2021/01/05 04:33:01;;;;;;;27.53;24.73;;;2.50;99.90;;;;;;5084357;28;20466;-75
2021/01/05 04:35:28;;;;;;;33.50;28.17;;;2.50;99.90;;;;;;5080655;28;21023;-76
2021/01/05 04:37:56;;;;;;;29.30;26.13;;;2.50;99.90;;;;;;5080458;28;20461;-76
2021/01/05 04:40:30;;;;;;;31.40;25.60;;;2.40;99.90;;;;;;5099876;27;20831;-75
2021/01/05 04:43:10;;;;;;;26.67;23.87;;;2.50;99.90;;;;;;5111558;28;20457;-74
2021/01/05 04:49:06;;;;;;;30.53;25.73;;;2.50;99.90;;;;;;5111901;28;20436;-76
2021/01/05 04:51:46;;;;;;;27.30;24.40;;;2.50;99.90;;;;;;5112222;28;20467;-74
2021/01/05 04:54:21;;;;;;;29.90;24.73;;;2.60;99.90;;;;;;5111571;28;20460;-74
2021/01/05 04:57:01;;;;;;;28.70;24.63;;;2.60;99.90;;;;;;5112071;28;20929;-76
2021/01/05 04:59:34;;;;;;;28.80;25.00;;;2.70;99.90;;;;;;5112294;28;20811;-74
2021/01/05 05:02:00;;;;;;;30.73;26.80;;;2.60;99.90;;;;;;5112840;28;20489;-75
2021/01/05 05:04:33;;;;;;;28.00;24.57;;;2.60;99.90;;;;;;5110123;28;20456;-75
2021/01/05 05:07:11;;;;;;;29.50;26.60;;;2.50;99.90;;;;;;5111709;28;20452;-75
2021/01/05 05:09:51;;;;;;;26.40;23.60;;;2.60;99.90;;;;;;5111199;28;20457;-75
2021/01/05 05:12:37;;;;;;;28.10;24.10;;;2.50;99.90;;;;;;5111746;28;20448;-77
2021/01/05 05:15:18;;;;;;;27.60;24.70;;;2.50;99.90;;;;;;5111450;28;20449;-74
2021/01/05 05:18:06;;;;;;;29.73;24.90;;;2.50;99.90;;;;;;5110942;28;20449;-74
2021/01/05 05:20:52;;;;;;;30.53;25.37;;;2.50;99.90;;;;;;5111726;28;20453;-76
2021/01/05 05:23:30;;;;;;;25.70;22.90;;;2.50;99.90;;;;;;5112150;28;20536;-76
2021/01/05 05:26:05;;;;;;;30.33;23.70;;;2.50;99.90;;;;;;5112024;28;20967;-76
2021/01/05 05:28:41;;;;;;;28.77;25.67;;;2.50;99.90;;;;;;5111805;28;20457;-77
2021/01/05 05:31:12;;;;;;;29.23;26.10;;;2.60;99.90;;;;;;5114939;28;20461;-77
2021/01/05 05:33:40;;;;;;;29.43;24.80;;;2.60;99.90;;;;;;5115389;28;20456;-77
2021/01/05 05:36:33;;;;;;;29.30;25.00;;;2.50;99.90;;;;;;5115165;28;20485;-76
2021/01/05 05:39:14;;;;;;;29.10;25.67;;;2.50;99.90;;;;;;5115502;28;20485;-77
2021/01/05 05:41:48;;;;;;;31.63;26.00;;;2.60;99.90;;;;;;5119123;27;20483;-75
2021/01/05 05:44:23;;;;;;;32.03;27.40;;;2.50;99.90;;;;;;5125729;27;20844;-75
2021/01/05 05:46:55;;;;;;;28.60;25.50;;;2.50;99.90;;;;;;5123232;27;20465;-76
2021/01/05 05:49:33;;;;;;;29.73;26.63;;;2.40;99.90;;;;;;5123410;27;20859;-76
2021/01/05 05:52:03;;;;;;;30.77;25.33;;;2.40;99.90;;;;;;5121650;27;20942;-75
2021/01/05 05:54:34;;;;;;;32.13;26.07;;;2.50;99.90;;;;;;5127471;27;20461;-75
2021/01/05 05:57:16;;;;;;;29.60;25.20;;;2.50;99.90;;;;;;5125627;27;21146;-77
2021/01/05 05:59:50;;;;;;;28.27;25.00;;;2.40;99.90;;;;;;5127718;27;20465;-76
2021/01/05 06:02:19;;;;;;;30.17;25.23;;;2.40;99.90;;;;;;5128258;27;20459;-76
2021/01/05 06:04:46;;;;;;;29.40;25.73;;;2.40;99.90;;;;;;5121896;27;21187;-75
2021/01/05 06:07:13;;;;;;;27.30;24.20;;;2.50;99.90;;;;;;5127561;27;20483;-75
2021/01/05 06:09:39;;;;;;;30.67;25.50;;;2.50;99.90;;;;;;5124749;27;20454;-76
2021/01/05 06:12:06;;;;;;;33.83;27.13;;;2.40;99.90;;;;;;5124840;27;20456;-75
2021/01/05 06:14:33;;;;;;;31.10;26.20;;;2.40;99.90;;;;;;5125500;27;20461;-75
2021/01/05 06:17:01;;;;;;;31.20;27.10;;;2.40;99.90;;;;;;5130883;27;20591;-76
2021/01/05 06:19:28;;;;;;;30.60;26.90;;;2.50;99.90;;;;;;5123638;27;20467;-75
2021/01/05 06:21:54;;;;;;;33.43;28.20;;;2.50;99.90;;;;;;5124551;27;20497;-75
2021/01/05 06:24:20;;;;;;;27.37;24.50;;;2.50;99.90;;;;;;5119926;27;20828;-76
2021/01/05 06:26:46;;;;;;;32.07;25.10;;;2.50;99.90;;;;;;5124420;27;20510;-76
2021/01/05 06:29:13;;;;;;;30.00;26.97;;;2.40;99.90;;;;;;5126415;27;20464;-76
2021/01/05 06:31:39;;;;;;;49.50;25.97;;;2.50;99.90;;;;;;5119764;27;22914;-77
2021/01/05 06:34:06;;;;;;;30.27;26.90;;;2.40;99.90;;;;;;5122942;27;20460;-77
2021/01/05 06:36:36;;;;;;;33.93;28.70;;;2.50;99.90;;;;;;5121407;27;20817;-76
2021/01/05 06:39:04;;;;;;;34.63;27.07;;;2.50;99.90;;;;;;5122399;27;20449;-76
2021/01/05 06:41:31;;;;;;;30.20;26.33;;;2.50;99.90;;;;;;5119494;27;20472;-77
2021/01/05 06:43:59;;;;;;;33.23;25.97;;;2.60;99.90;;;;;;5124096;27;20518;-74
2021/01/05 06:46:25;;;;;;;28.33;25.23;;;2.60;99.90;;;;;;5129923;27;20448;-74
2021/01/05 06:48:52;;;;;;;32.47;25.33;;;2.60;99.90;;;;;;5123655;27;20496;-75
2021/01/05 06:51:20;;;;;;;32.43;26.30;;;2.60;99.90;;;;;;5120599;27;20539;-76
2021/01/05 06:53:46;;;;;;;33.13;25.97;;;2.60;99.90;;;;;;5121458;27;20460;-75
2021/01/05 06:56:14;;;;;;;27.93;25.03;;;2.50;99.90;;;;;;5121835;27;20774;-76
2021/01/05 06:58:41;;;;;;;28.03;25.00;;;2.60;99.90;;;;;;5125786;27;20448;-75
2021/01/05 07:01:07;;;;;;;30.90;25.37;;;2.60;99.90;;;;;;5119291;27;20453;-76
2021/01/05 07:03:33;;;;;;;29.83;25.50;;;2.60;99.90;;;;;;5117254;27;20457;-77
2021/01/05 07:05:59;;;;;;;30.93;26.67;;;2.60;99.90;;;;;;5122917;27;20577;-74
2021/01/05 07:08:26;;;;;;;34.83;26.10;;;2.60;99.90;;;;;;5115553;27;20485;-76
2021/01/05 07:10:53;;;;;;;29.97;26.53;;;2.60;99.90;;;;;;5128283;27;20494;-74
2021/01/05 07:13:19;;;;;;;29.13;26.10;;;2.60;99.90;;;;;;5125367;27;20460;-76
2021/01/05 07:15:46;;;;;;;32.57;26.77;;;2.70;99.90;;;;;;5122950;27;20499;-74
2021/01/05 07:18:13;;;;;;;30.13;26.10;;;2.70;99.90;;;;;;5125235;27;20462;-74
2021/01/05 07:20:39;;;;;;;31.90;26.83;;;2.80;99.90;;;;;;5124513;27;20465;-75
2021/01/05 07:23:05;;;;;;;32.20;26.57;;;2.70;99.90;;;;;;5121464;27;20547;-75
2021/01/05 07:25:32;;;;;;;35.40;26.57;;;2.70;99.90;;;;;;5116807;27;20506;-77
2021/01/05 07:27:59;;;;;;;40.47;29.90;;;2.60;99.90;;;;;;5125055;27;20448;-76
2021/01/05 07:30:25;;;;;;;38.20;29.30;;;2.50;99.90;;;;;;5122580;27;20482;-76
2021/01/05 07:32:51;;;;;;;33.43;27.20;;;2.60;99.90;;;;;;5119604;27;20464;-76
2021/01/05 07:35:18;;;;;;;33.10;26.70;;;2.70;99.90;;;;;;5120300;27;20464;-75
2021/01/05 07:37:45;;;;;;;37.83;29.13;;;2.70;99.90;;;;;;5118858;27;20461;-75
2021/01/05 07:40:15;;;;;;;33.00;28.10;;;2.60;99.90;;;;;;5115992;27;20489;-74
2021/01/05 07:42:42;;;;;;;34.10;26.97;;;2.60;99.90;;;;;;5118989;27;20481;-75
2021/01/05 07:45:17;;;;;;;37.90;28.60;;;2.70;99.90;;;;;;5118253;27;20834;-76
2021/01/05 07:47:43;;;;;;;32.83;27.50;;;2.70;99.90;;;;;;5114882;27;21078;-74
2021/01/05 07:50:17;;;;;;;30.03;26.90;;;2.60;99.90;;;;;;5120623;27;20461;-76
2021/01/05 07:52:44;;;;;;;34.27;25.40;;;2.60;99.90;;;;;;5124863;27;20466;-77
2021/01/05 07:55:15;;;;;;;31.63;27.10;;;2.70;99.90;;;;;;5115461;27;20463;-77
2021/01/05 07:57:43;;;;;;;31.43;26.60;;;2.70;99.90;;;;;;5116996;27;20973;-76
2021/01/05 08:00:13;;;;;;;30.90;27.67;;;2.80;99.90;;;;;;5118519;27;20471;-76
2021/01/05 08:02:39;;;;;;;35.73;28.47;;;2.80;99.90;;;;;;5121708;27;20461;-75
2021/01/05 08:05:06;;;;;;;35.13;28.23;;;2.90;99.90;;;;;;5122761;27;20463;-74
2021/01/05 08:07:34;;;;;;;30.90;26.97;;;2.90;99.90;;;;;;5120602;27;20802;-75
2021/01/05 08:10:00;;;;;;;31.80;27.00;;;3.00;99.90;;;;;;5115990;27;20448;-74
2021/01/05 08:12:27;;;;;;;33.17;27.50;;;3.00;99.90;;;;;;5116442;27;20455;-74
2021/01/05 08:14:54;;;;;;;36.23;28.03;;;2.90;99.90;;;;;;5116529;27;20456;-76
2021/01/05 08:17:21;;;;;;;31.43;27.87;;;2.90;99.90;;;;;;5116897;27;20489;-76
2021/01/05 08:19:47;;;;;;;38.03;29.33;;;2.90;99.90;;;;;;5121477;27;20464;-75
2021/01/05 08:22:14;;;;;;;33.43;28.00;;;2.90;99.90;;;;;;5119638;27;20507;-75
2021/01/05 08:24:42;;;;;;;30.77;27.43;;;2.90;99.90;;;;;;5117657;27;20814;-75
2021/01/05 08:27:09;;;;;;;37.37;28.57;;;3.00;99.90;;;;;;5119593;27;20452;-76
2021/01/05 08:29:36;;;;;;;31.33;27.20;;;3.10;99.90;;;;;;5120781;27;20456;-77
2021/01/05 08:32:05;;;;;;;29.17;24.37;;;3.00;99.90;;;;;;5116371;27;20496;-75
2021/01/05 08:34:31;;;;;;;31.90;26.40;;;2.90;99.90;;;;;;5124148;27;20560;-75
2021/01/05 08:36:59;;;;;;;28.27;24.80;;;2.90;99.90;;;;;;5121459;27;20487;-75
2021/01/05 08:39:26;;;;;;;30.97;25.60;;;2.90;99.90;;;;;;5113797;27;20488;-75
2021/01/05 08:41:55;;;;;;;35.53;26.47;;;2.90;99.90;;;;;;5114893;27;20484;-74
2021/01/05 08:44:22;;;;;;;31.43;25.23;;;3.00;99.90;;;;;;5116262;27;20464;-75
2021/01/05 08:46:49;;;;;;;33.00;27.80;;;3.00;99.90;;;;;;5115628;27;20498;-74
2021/01/05 08:49:16;;;;;;;29.30;26.20;;;3.10;99.90;;;;;;5122570;27;20913;-77
2021/01/05 08:51:42;;;;;;;31.93;27.63;;;3.10;99.90;;;;;;5119958;27;20826;-77
2021/01/05 08:54:09;;;;;;;31.53;27.13;;;3.20;99.90;;;;;;5115017;27;20463;-76
2021/01/05 08:56:35;;;;;;;29.57;26.47;;;3.20;99.90;;;;;;5118038;27;20841;-75
2021/01/05 08:59:01;;;;;;;29.83;26.17;;;3.10;99.90;;;;;;5121421;27;20536;-77
2021/01/05 09:01:27;;;;;;;36.17;25.20;;;3.30;99.90;;;;;;5121037;27;20475;-74
2021/01/05 09:03:54;;;;;;;30.53;27.33;;;3.40;99.90;;;;;;5115321;27;20455;-74
2021/01/05 09:06:24;;;;;;;30.90;27.60;;;3.40;99.90;;;;;;5121237;27;20454;-74
2021/01/05 09:08:51;;;;;;;34.53;28.90;;;3.20;99.90;;;;;;5122776;27;20449;-75
2021/01/05 09:11:20;;;;;;;33.03;29.53;;;3.00;99.90;;;;;;5121279;27;20459;-75
2021/01/05 09:13:46;;;;;;;31.67;27.53;;;3.20;99.90;;;;;;5121931;27;20503;-75
2021/01/05 09:16:23;;;;;;;32.47;26.13;;;3.40;99.90;;;;;;5127820;27;21192;-75
2021/01/05 09:18:51;;;;;;;31.67;26.07;;;3.40;99.90;;;;;;5126088;27;20456;-75
2021/01/05 09:21:22;;;;;;;36.13;27.30;;;3.40;99.90;;;;;;5123557;27;20460;-74
2021/01/05 09:23:50;;;;;;;31.27;27.60;;;3.40;99.90;;;;;;5122907;27;20456;-77
2021/01/05 09:26:19;;;;;;;33.07;28.10;;;3.40;99.90;;;;;;5126119;27;20974;-73
2021/01/05 09:28:45;;;;;;;35.10;28.10;;;3.40;99.90;;;;;;5122439;27;20453;-76
2021/01/05 09:31:13;;;;;;;34.13;29.10;;;3.50;99.90;;;;;;5131463;27;20456;-76
2021/01/05 09:33:39;;;;;;;35.97;29.33;;;3.60;99.90;;;;;;5129077;27;20464;-74
2021/01/05 09:36:07;;;;;;;34.27;28.83;;;3.70;99.90;;;;;;5128092;27;20608;-76
2021/01/05 09:38:33;;;;;;;36.10;29.00;;;3.60;99.90;;;;;;5119155;27;20700;-76
2021/01/05 09:41:01;;;;;;;37.13;28.10;;;3.70;99.90;;;;;;5122226;27;20767;-73
2021/01/05 09:43:27;;;;;;;35.73;27.60;;;3.70;99.90;;;;;;5121354;27;20824;-74
2021/01/05 09:45:53;;;;;;;43.27;31.53;;;3.80;99.90;;;;;;5128134;27;20459;-75
2021/01/05 09:48:21;;;;;;;30.93;27.67;;;3.80;99.90;;;;;;5127519;27;20467;-75
2021/01/05 09:50:48;;;;;;;34.13;28.90;;;3.70;99.90;;;;;;5124634;27;20502;-76
2021/01/05 09:53:15;;;;;;;35.33;28.53;;;3.60;99.90;;;;;;5121735;27;20464;-76
2021/01/05 09:55:42;;;;;;;36.33;28.80;;;3.60;99.90;;;;;;5122061;27;20469;-74
2021/01/05 09:58:09;;;;;;;34.73;29.07;;;3.60;99.90;;;;;;5123944;27;20465;-75
2021/01/05 10:00:36;;;;;;;29.57;26.30;;;3.70;99.90;;;;;;5127867;27;20451;-76
2021/01/05 10:03:02;;;;;;;35.37;29.10;;;3.60;99.90;;;;;;5123385;27;21041;-76
2021/01/05 10:05:29;;;;;;;34.93;28.57;;;3.60;99.90;;;;;;5124137;27;20853;-76
2021/01/05 10:07:56;;;;;;;36.27;30.37;;;3.60;99.90;;;;;;5126199;27;20457;-76
2021/01/05 10:10:24;;;;;;;35.80;28.60;;;3.60;99.90;;;;;;5132751;27;20458;-74
2021/01/05 10:12:52;;;;;;;37.67;29.03;;;3.50;99.90;;;;;;5126686;27;20458;-74
2021/01/05 10:15:24;;;;;;;32.57;28.63;;;3.60;99.90;;;;;;5121390;27;20467;-74
2021/01/05 10:17:50;;;;;;;32.03;27.83;;;3.60;99.90;;;;;;5121288;27;20846;-75
2021/01/05 10:20:19;;;;;;;35.93;29.07;;;3.60;99.90;;;;;;5120022;27;20472;-76
2021/01/05 10:22:45;;;;;;;39.40;30.30;;;3.50;99.90;;;;;;5122514;27;20739;-76
2021/01/05 10:25:15;;;;;;;32.33;28.67;;;3.50;99.90;;;;;;5118531;27;20482;-76
2021/01/05 10:27:42;;;;;;;34.60;29.30;;;3.60;99.90;;;;;;5124181;27;20863;-76
2021/01/05 10:30:11;;;;;;;36.87;29.30;;;3.70;99.90;;;;;;5123193;27;20539;-75
2021/01/05 10:32:42;;;;;;;39.53;29.83;;;3.70;99.90;;;;;;5121359;27;20528;-76
2021/01/05 10:35:09;;;;;;;37.53;29.70;;;3.70;99.90;;;;;;5123966;27;20458;-75
2021/01/05 10:37:37;;;;;;;37.23;29.07;;;3.70;99.90;;;;;;5117610;27;20488;-74
2021/01/05 10:40:05;;;;;;;33.13;28.67;;;3.50;99.90;;;;;;5118577;27;20813;-75
2021/01/05 10:42:31;;;;;;;30.63;27.33;;;3.70;99.90;;;;;;5120427;27;20982;-75
2021/01/05 10:44:58;;;;;;;39.83;30.57;;;3.60;99.90;;;;;;5120496;27;20902;-75
2021/01/05 10:47:24;;;;;;;32.30;28.80;;;3.60;99.90;;;;;;5117853;27;20827;-75
2021/01/05 10:49:52;;;;;;;33.50;27.87;;;3.70;99.90;;;;;;5117329;27;20467;-75
2021/01/05 10:52:19;;;;;;;29.17;26.00;;;3.70;99.90;;;;;;5122749;27;20469;-75
2021/01/05 10:54:45;;;;;;;32.80;26.77;;;3.70;99.90;;;;;;5124765;27;20954;-76
2021/01/05 10:57:12;;;;;;;32.93;27.20;;;3.60;99.90;;;;;;5118967;27;20491;-74
2021/01/05 10:59:41;;;;;;;37.93;28.23;;;3.60;99.90;;;;;;5118289;27;20465;-76
2021/01/05 11:02:09;;;;;;;35.47;28.63;;;3.50;99.90;;;;;;5126643;27;20465;-75
2021/01/05 11:04:37;;;;;;;35.10;28.60;;;3.50;99.90;;;;;;5127619;27;20454;-75
2021/01/05 11:07:06;;;;;;;44.00;29.33;;;3.70;99.90;;;;;;5127413;27;20896;-76
2021/01/05 11:09:33;;;;;;;40.83;31.43;;;3.80;99.90;;;;;;5122115;27;20962;-76
2021/01/05 11:12:02;;;;;;;39.60;30.43;;;3.90;99.90;;;;;;5123039;27;20527;-75
2021/01/05 11:14:29;;;;;;;42.07;30.97;;;3.80;99.90;;;;;;5125398;27;20815;-74
2021/01/05 11:16:58;;;;;;;44.80;34.10;;;3.80;99.90;;;;;;5125081;27;20489;-78
2021/01/05 11:19:25;;;;;;;47.90;32.80;;;3.70;99.90;;;;;;5118368;27;20462;-75
2021/01/05 11:21:54;;;;;;;43.17;32.57;;;3.80;99.90;;;;;;5125183;27;20468;-75
2021/01/05 11:24:21;;;;;;;46.57;31.23;;;3.90;99.90;;;;;;5117900;27;20465;-76
2021/01/05 11:26:48;;;;;;;43.27;32.00;;;3.90;99.90;;;;;;5120890;27;20460;-75
2021/01/05 11:29:15;;;;;;;53.83;33.40;;;3.80;99.90;;;;;;5121855;27;20797;-75
2021/01/05 11:31:42;;;;;;;46.67;32.80;;;3.90;99.90;;;;;;5121840;27;20461;-76
2021/01/05 11:34:09;;;;;;;47.27;34.57;;;4.00;99.90;;;;;;5125314;27;20537;-77
2021/01/05 11:36:38;;;;;;;47.17;33.23;;;3.80;99.90;;;;;;5123833;27;20487;-76
2021/01/05 11:39:06;;;;;;;49.37;34.87;;;3.90;99.90;;;;;;5120991;27;20465;-75
2021/01/05 11:41:35;;;;;;;54.63;34.03;;;3.80;99.90;;;;;;5116500;27;20473;-75
2021/01/05 11:44:02;;;;;;;46.03;34.20;;;3.80;99.90;;;;;;5117755;27;20461;-76
2021/01/05 11:46:29;;;;;;;48.50;33.30;;;3.80;99.90;;;;;;5124866;27;20465;-75
2021/01/05 11:48:56;;;;;;;46.53;32.70;;;3.90;99.90;;;;;;5121284;27;20456;-76
2021/01/05 11:51:25;;;;;;;42.17;30.73;;;3.90;99.90;;;;;;5118708;27;20865;-75
2021/01/05 11:53:52;;;;;;;51.77;35.60;;;3.90;99.90;;;;;;5120967;27;20514;-75
2021/01/05 11:56:20;;;;;;;46.60;32.53;;;3.90;99.90;;;;;;5118307;27;20923;-76
2021/01/05 11:58:49;;;;;;;42.70;32.63;;;4.00;99.90;;;;;;5121591;27;20992;-75
2021/01/05 12:01:16;;;;;;;42.43;32.70;;;4.00;99.90;;;;;;5126841;27;20840;-75
2021/01/05 12:03:42;;;;;;;49.30;30.67;;;3.80;99.90;;;;;;5124306;27;20448;-77
2021/01/05 12:06:16;;;;;;;44.17;32.80;;;3.80;99.90;;;;;;5120724;27;20464;-75
2021/01/05 12:08:43;;;;;;;45.60;31.90;;;3.80;99.90;;;;;;5120901;27;20452;-75
2021/01/05 12:11:16;;;;;;;42.67;29.27;;;3.90;99.90;;;;;;5121056;27;20456;-76
2021/01/05 12:13:42;;;;;;;44.37;31.50;;;3.80;99.90;;;;;;5119817;27;20456;-76
2021/01/05 12:16:10;;;;;;;42.37;31.03;;;3.70;99.90;;;;;;5126247;27;20476;-76
2021/01/05 12:18:38;;;;;;;41.27;29.70;;;3.60;99.90;;;;;;5124646;27;20460;-75
2021/01/05 12:21:04;;;;;;;44.00;31.20;;;3.70;99.90;;;;;;5120753;27;20455;-77
2021/01/05 12:23:30;;;;;;;49.37;33.03;;;3.80;99.90;;;;;;5121113;27;20560;-76
2021/01/05 12:25:56;;;;;;;37.80;29.07;;;3.80;99.90;;;;;;5126117;27;20938;-75
2021/01/05 12:28:23;;;;;;;49.33;32.77;;;3.80;99.90;;;;;;5118802;27;20448;-76
2021/01/05 12:30:50;;;;;;;39.87;30.37;;;3.60;99.90;;;;;;5126604;27;20471;-76
2021/01/05 12:33:17;;;;;;;45.27;31.50;;;3.50;99.90;;;;;;5117238;27;20510;-76
2021/01/05 12:35:45;;;;;;;42.40;30.97;;;3.50;99.90;;;;;;5112997;27;20461;-76
2021/01/05 12:38:11;;;;;;;43.23;30.67;;;3.50;99.90;;;;;;5117644;27;20461;-75
2021/01/05 12:40:37;;;;;;;47.60;32.07;;;3.50;99.90;;;;;;5116873;27;20484;-75
2021/01/05 12:43:04;;;;;;;49.70;31.67;;;3.60;99.90;;;;;;5123307;27;20456;-76
2021/01/05 12:45:30;;;;;;;47.60;31.90;;;3.50;99.90;;;;;;5118657;27;20499;-75
2021/01/05 12:47:57;;;;;;;39.20;29.30;;;3.60;99.90;;;;;;5115894;27;20472;-76
2021/01/05 12:50:24;;;;;;;44.87;31.00;;;3.60;99.90;;;;;;5125497;27;20468;-76
2021/01/05 12:52:51;;;;;;;54.00;33.50;;;3.80;99.90;;;;;;5120693;27;20457;-76